Time;durP1;ratioP1;P1;durP2;ratioP2;P2;SDS_P1;SDS_P2;PMS_P1;PMS_P2;Temp;Humidity;BMP_temperature;BMP_pressure;BME280_temperature;BME280_humidity;BME280_pressure;Samples;Min_cycle;Max_cycle;Signal;HPM_P1;HPM_P2
2023/07/22 00:02:00;;;;;;;17.23;7.05;;;;;;;-143.21;48.58;70862.75;5111667;28;20204;-83
2023/07/22 00:04:27;;;;;;;18.95;7.28;;;;;;;-143.21;48.73;70870.69;5110106;28;20227;-83
2023/07/22 00:06:54;;;;;;;14.35;6.97;;;;;;;-143.21;48.58;70870.69;5107997;28;20630;-83
2023/07/22 00:09:21;;;;;;;13.60;7.10;;;;;;;-143.21;48.39;70866.72;5106533;28;20199;-83
2023/07/22 00:11:50;;;;;;;13.82;6.80;;;;;;;-143.21;48.47;70858.78;5107680;28;20249;-83
2023/07/22 00:14:18;;;;;;;15.77;6.68;;;;;;;-143.21;48.49;70856.81;5111109;27;20204;-83
2023/07/22 00:16:45;;;;;;;13.85;7.05;;;;;;;-143.21;48.53;70864.75;5111184;27;20203;-83
2023/07/22 00:19:14;;;;;;;22.40;7.55;;;;;;;-143.21;48.74;70864.75;5109570;27;20212;-83
2023/07/22 00:21:40;;;;;;;17.92;7.50;;;;;;;-143.21;48.52;70862.75;5110402;27;20222;-83
2023/07/22 00:24:08;;;;;;;14.35;7.03;;;;;;;-143.21;49.26;70878.63;5112304;27;20284;-83
2023/07/22 00:26:34;;;;;;;14.82;7.78;;;;;;;-143.21;48.83;70882.59;5112316;27;20260;-83
2023/07/22 00:29:02;;;;;;;13.75;6.72;;;;;;;-143.21;48.97;70884.56;5111730;27;20204;-83
2023/07/22 00:31:30;;;;;;;13.02;6.40;;;;;;;-143.21;49.38;70902.41;5110625;28;20202;-83
2023/07/22 00:33:57;;;;;;;16.23;6.25;;;;;;;-143.21;49.55;70908.34;5110928;27;20261;-83
2023/07/22 00:36:24;;;;;;;11.13;6.35;;;;;;;-143.21;49.90;70916.28;5111688;27;20196;-83
2023/07/22 00:38:52;;;;;;;16.02;6.78;;;;;;;-143.21;50.10;70910.34;5111817;27;20207;-83
2023/07/22 00:41:20;;;;;;;15.18;7.15;;;;;;;-143.21;50.15;70912.31;5111657;27;20200;-82
2023/07/22 00:43:46;;;;;;;12.60;6.85;;;;;;;-143.21;49.97;70918.25;5111274;27;20212;-82
2023/07/22 00:46:13;;;;;;;14.90;7.25;;;;;;;-143.21;50.10;70918.25;5115147;27;20219;-82
2023/07/22 00:48:43;;;;;;;10.18;7.07;;;;;;;-143.21;50.35;70916.28;5110381;27;20200;-81
2023/07/22 00:51:10;;;;;;;12.95;6.65;;;;;;;-143.21;50.57;70928.19;5110441;27;20235;-82
2023/07/22 00:53:37;;;;;;;14.07;7.28;;;;;;;-143.21;50.63;70934.13;5111084;27;20195;-82
2023/07/22 00:56:05;;;;;;;15.00;7.25;;;;;;;-143.21;50.69;70938.09;5113507;27;20662;-82
2023/07/22 00:58:32;;;;;;;13.85;6.68;;;;;;;-143.21;50.06;70932.13;5110902;27;20754;-84
2023/07/22 01:00:59;;;;;;;18.45;7.15;;;;;;;-143.21;50.46;70936.09;5117849;27;20208;-84
2023/07/22 01:03:26;;;;;;;12.68;7.88;;;;;;;-143.21;50.60;70948.00;5114536;27;20397;-84
2023/07/22 01:05:55;;;;;;;14.82;7.15;;;;;;;-143.21;51.46;70948.00;5113522;27;20227;-84
2023/07/22 01:08:22;;;;;;;15.00;7.20;;;;;;;-143.21;51.30;70949.97;5111324;27;20203;-84
2023/07/22 01:10:49;;;;;;;14.93;7.93;;;;;;;-143.21;51.22;70936.09;5110788;27;20212;-85
2023/07/22 01:13:16;;;;;;;15.20;7.15;;;;;;;-143.21;50.94;70944.03;5111230;27;20207;-85
2023/07/22 01:15:42;;;;;;;11.40;6.72;;;;;;;-143.21;51.83;70963.84;5111405;27;20306;-85
2023/07/22 01:18:09;;;;;;;19.98;7.50;;;;;;;-143.21;52.13;70969.81;5115378;27;20211;-85
2023/07/22 01:20:37;;;;;;;18.13;7.28;;;;;;;-143.21;52.33;70963.84;5113728;27;20223;-86
2023/07/22 01:23:06;;;;;;;12.43;7.43;;;;;;;-143.21;51.87;70961.88;5109846;27;20224;-84
2023/07/22 01:25:33;;;;;;;14.73;8.07;;;;;;;-143.21;52.13;70963.84;5109809;27;20231;-84
2023/07/22 01:28:00;;;;;;;14.15;7.10;;;;;;;-143.21;52.01;70951.97;5111598;27;20212;-84
2023/07/22 01:30:27;;;;;;;20.13;7.60;;;;;;;-143.21;52.21;70955.94;5111937;27;20203;-81
2023/07/22 01:32:54;;;;;;;14.13;6.78;;;;;;;-143.21;52.41;70963.84;5108947;27;20226;-82
2023/07/22 01:35:21;;;;;;;13.05;6.90;;;;;;;-143.21;52.94;70961.88;5112483;27;20204;-81
2023/07/22 01:37:48;;;;;;;16.98;7.30;;;;;;;-143.21;52.99;70951.97;5118601;27;20215;-81
2023/07/22 01:40:16;;;;;;;14.98;7.95;;;;;;;-143.21;52.74;70944.03;5108707;27;20219;-81
2023/07/22 01:42:43;;;;;;;15.45;7.78;;;;;;;-143.21;52.70;70944.03;5114424;27;20269;-81
2023/07/22 01:45:11;;;;;;;16.25;7.47;;;;;;;-143.21;52.71;70944.03;5110225;27;20223;-81
2023/07/22 01:47:38;;;;;;;14.90;7.30;;;;;;;-143.21;53.07;70944.03;5112882;27;20208;-81
2023/07/22 01:50:06;;;;;;;16.55;8.10;;;;;;;-143.21;53.43;70946.03;5112141;27;20212;-81
2023/07/22 01:52:33;;;;;;;12.65;7.50;;;;;;;-143.21;53.51;70944.03;5109801;27;20631;-81
2023/07/22 01:55:00;;;;;;;19.08;8.43;;;;;;;-143.21;53.47;70946.03;5111782;27;20621;-81
2023/07/22 01:57:29;;;;;;;17.10;7.60;;;;;;;-143.21;53.40;70957.91;5110199;27;20204;-82
2023/07/22 01:59:55;;;;;;;18.17;8.90;;;;;;;-143.21;53.91;70957.91;5111496;27;20208;-81
2023/07/22 02:02:22;;;;;;;16.83;9.15;;;;;;;-143.21;54.12;70971.78;5108883;27;20196;-82
2023/07/22 02:04:49;;;;;;;18.80;10.07;;;;;;;-143.21;54.42;70991.63;5112985;27;21112;-82
2023/07/22 02:07:16;;;;;;;17.33;8.60;;;;;;;-143.21;53.96;71007.47;5114368;27;21204;-82
2023/07/22 02:09:43;;;;;;;19.45;8.30;;;;;;;-143.21;54.62;71011.44;5109928;27;20222;-82
2023/07/22 02:12:10;;;;;;;22.55;9.18;;;;;;;-143.21;54.98;71007.47;5112466;27;20218;-81
2023/07/22 02:14:38;;;;;;;16.42;8.73;;;;;;;-143.21;55.18;71015.41;5114242;27;20273;-82
2023/07/22 02:17:08;;;;;;;16.63;7.88;;;;;;;-143.21;55.07;71017.38;5110256;27;20208;-82
2023/07/22 02:19:35;;;;;;;15.68;8.32;;;;;;;-143.21;54.62;71025.31;5109248;27;20615;-82
2023/07/22 02:22:04;;;;;;;21.25;8.15;;;;;;;-143.21;55.05;71025.31;5111537;27;20206;-83
2023/07/22 02:24:31;;;;;;;19.05;8.05;;;;;;;-143.21;54.94;71027.28;5111564;27;20234;-82
2023/07/22 02:26:58;;;;;;;14.55;7.68;;;;;;;-143.21;53.65;71029.28;5119391;27;20204;-82
2023/07/22 02:29:24;;;;;;;11.95;7.28;;;;;;;-143.21;54.44;71051.09;5113795;27;20200;-80
2023/07/22 02:31:53;;;;;;;13.43;7.15;;;;;;;-143.21;54.46;71039.19;5116523;27;20215;-80
2023/07/22 02:34:20;;;;;;;17.17;8.25;;;;;;;-143.21;54.27;71033.25;5117926;27;20210;-80
2023/07/22 02:36:46;;;;;;;14.02;7.75;;;;;;;-143.21;54.18;71029.28;5114519;27;20665;-81
2023/07/22 02:39:13;;;;;;;12.43;7.72;;;;;;;-143.21;54.00;71029.28;5112219;27;20204;-81
2023/07/22 02:41:41;;;;;;;12.73;8.20;;;;;;;-143.21;54.37;71021.34;5112473;27;20211;-81
2023/07/22 02:44:08;;;;;;;13.80;8.00;;;;;;;-143.21;53.72;71019.38;5109633;27;20196;-81
2023/07/22 02:46:34;;;;;;;16.17;8.38;;;;;;;-143.21;53.77;71015.41;5110089;27;20208;-81
2023/07/22 02:49:03;;;;;;;21.40;10.50;;;;;;;-143.21;54.01;71013.41;5109509;27;20204;-81
2023/07/22 02:51:30;;;;;;;16.90;9.48;;;;;;;-143.21;54.02;71025.31;5108991;28;20709;-81
2023/07/22 02:53:57;;;;;;;16.35;8.55;;;;;;;-143.21;54.20;71041.16;5109145;27;20208;-81
2023/07/22 02:56:24;;;;;;;23.15;8.35;;;;;;;-143.21;54.25;71047.13;5109229;28;20245;-81
2023/07/22 02:58:51;;;;;;;12.82;7.63;;;;;;;-143.21;54.30;71051.09;5112632;27;20208;-81
2023/07/22 03:01:18;;;;;;;16.33;7.45;;;;;;;-143.21;54.26;71043.16;5108807;27;20257;-81
2023/07/22 03:03:45;;;;;;;16.20;7.47;;;;;;;-143.21;54.24;71049.09;5115247;27;20246;-81
2023/07/22 03:06:15;;;;;;;12.38;7.05;;;;;;;-143.21;53.95;71047.13;5112317;27;20224;-81
2023/07/22 03:08:42;;;;;;;8.65;6.70;;;;;;;-143.21;54.30;71049.09;5108941;27;20234;-81
2023/07/22 03:11:09;;;;;;;16.15;7.22;;;;;;;-143.21;53.96;71041.16;5109809;27;20207;-80
2023/07/22 03:13:36;;;;;;;15.50;7.35;;;;;;;-143.21;54.38;71051.09;5108487;27;20223;-80
2023/07/22 03:16:03;;;;;;;11.35;7.18;;;;;;;-143.21;54.69;71055.06;5108884;27;20200;-80
2023/07/22 03:18:30;;;;;;;13.63;7.78;;;;;;;-143.21;54.95;71068.94;5115976;27;20203;-79
2023/07/22 03:20:57;;;;;;;14.60;7.80;;;;;;;-143.21;54.81;71059.00;5115676;27;20208;-80
2023/07/22 03:23:25;;;;;;;12.85;8.00;;;;;;;-143.21;54.77;71055.06;5112974;27;20199;-81
2023/07/22 03:25:52;;;;;;;20.17;7.70;;;;;;;-143.21;55.18;71061.00;5112291;27;20315;-80
2023/07/22 03:28:19;;;;;;;14.73;7.38;;;;;;;-143.21;55.06;71055.06;5113221;27;20212;-80
2023/07/22 03:30:46;;;;;;;15.00;7.32;;;;;;;-143.21;55.27;71066.94;5112587;27;20241;-80
2023/07/22 03:33:14;;;;;;;17.23;8.27;;;;;;;-143.21;55.16;71066.94;5108430;27;20234;-80
2023/07/22 03:35:41;;;;;;;20.08;7.18;;;;;;;-143.21;54.96;71076.84;5107318;28;20938;-80
2023/07/22 03:38:08;;;;;;;13.07;7.82;;;;;;;-143.21;54.68;71080.81;5112725;27;20705;-81
2023/07/22 03:40:37;;;;;;;12.13;7.60;;;;;;;-143.21;55.26;71086.75;5109155;27;20791;-79
2023/07/22 03:43:04;;;;;;;13.07;7.45;;;;;;;-143.21;55.28;71092.72;5109655;27;20203;-79
2023/07/22 03:45:31;;;;;;;18.15;8.40;;;;;;;-143.21;55.40;71086.75;5119535;27;20240;-79
2023/07/22 03:48:00;;;;;;;13.13;7.82;;;;;;;-143.21;55.03;71074.88;5110529;27;20211;-79
2023/07/22 03:50:27;;;;;;;17.90;7.65;;;;;;;-143.21;55.06;71076.84;5111187;27;20199;-79
2023/07/22 03:52:54;;;;;;;18.95;7.68;;;;;;;-143.21;55.04;71080.81;5109640;28;20196;-79
2023/07/22 03:55:21;;;;;;;11.98;7.65;;;;;;;-143.21;54.91;71084.78;5109755;28;20584;-79
2023/07/22 03:57:49;;;;;;;16.15;7.93;;;;;;;-143.21;54.88;71098.66;5108241;28;20211;-79
2023/07/22 04:00:16;;;;;;;13.00;7.57;;;;;;;-143.21;54.93;71102.63;5107535;28;20207;-79
2023/07/22 04:02:43;;;;;;;14.18;7.55;;;;;;;-143.21;55.40;71116.50;5107870;28;20216;-79
2023/07/22 04:05:11;;;;;;;12.95;7.50;;;;;;;-143.21;55.90;71130.38;5108059;28;20227;-79
2023/07/22 04:07:38;;;;;;;12.63;7.75;;;;;;;-143.21;56.24;71132.38;5111689;28;20200;-79
2023/07/22 04:10:05;;;;;;;14.95;7.88;;;;;;;-143.21;56.11;71128.41;5115395;28;20199;-79
2023/07/22 04:12:32;;;;;;;13.10;7.40;;;;;;;-143.21;56.26;71118.50;5110322;28;20202;-79
2023/07/22 04:15:00;;;;;;;21.30;7.43;;;;;;;-143.21;56.05;71110.56;5111804;28;20199;-79
2023/07/22 04:17:27;;;;;;;11.65;7.75;;;;;;;-143.21;56.29;71114.53;5113465;28;20211;-78
2023/07/22 04:19:54;;;;;;;19.42;7.28;;;;;;;-143.21;56.45;71110.56;5108372;28;20208;-80
2023/07/22 04:22:21;;;;;;;14.50;7.05;;;;;;;-143.21;56.15;71100.66;5119617;28;20204;-81
2023/07/22 04:24:49;;;;;;;11.82;7.38;;;;;;;-143.21;56.53;71100.66;5110962;28;20687;-81
2023/07/22 04:27:16;;;;;;;11.55;7.20;;;;;;;-143.21;56.20;71104.59;5110286;28;20208;-82
2023/07/22 04:29:43;;;;;;;13.35;7.45;;;;;;;-143.21;56.36;71108.56;5110584;28;20755;-81
2023/07/22 04:32:11;;;;;;;16.90;7.78;;;;;;;-143.21;56.35;71102.63;5107625;28;20204;-81
2023/07/22 04:34:38;;;;;;;14.98;7.38;;;;;;;-143.21;56.16;71100.66;5111178;28;20211;-81
2023/07/22 04:37:05;;;;;;;15.35;7.30;;;;;;;-143.21;56.26;71094.69;5110029;28;20196;-82
2023/07/22 04:39:32;;;;;;;13.05;7.82;;;;;;;-143.21;55.90;71084.78;5110091;28;20192;-81
2023/07/22 04:41:59;;;;;;;13.32;7.70;;;;;;;-143.21;56.47;71092.72;5108049;28;20643;-81
2023/07/22 04:44:25;;;;;;;14.52;7.57;;;;;;;-143.21;56.63;71092.72;5110828;28;20257;-80
2023/07/22 04:46:52;;;;;;;11.23;7.88;;;;;;;-143.21;56.62;71088.75;5108010;28;20658;-82
2023/07/22 04:49:21;;;;;;;18.48;8.27;;;;;;;-143.21;56.56;71082.81;5109298;28;20206;-80
2023/07/22 04:51:48;;;;;;;18.10;7.40;;;;;;;-143.21;56.33;71076.84;5106411;28;20328;-82
2023/07/22 04:54:15;;;;;;;16.52;8.30;;;;;;;-143.21;56.48;71070.91;5111907;28;20223;-81
2023/07/22 04:56:42;;;;;;;14.43;7.80;;;;;;;-143.21;56.21;71066.94;5108557;28;20592;-82
2023/07/22 04:59:09;;;;;;;13.07;7.45;;;;;;;-143.21;56.87;71074.88;5114053;27;20210;-81
2023/07/22 05:01:37;;;;;;;13.82;7.70;;;;;;;-143.21;56.61;71070.91;5111106;27;20202;-81
2023/07/22 05:04:04;;;;;;;11.85;7.22;;;;;;;-143.21;56.65;71066.94;5114311;27;20617;-81
2023/07/22 05:06:33;;;;;;;14.65;7.70;;;;;;;-143.21;56.75;71068.94;5109036;27;20228;-80
2023/07/22 05:08:59;;;;;;;21.67;9.43;;;;;;;-143.21;57.09;71066.94;5109659;27;20206;-80
2023/07/22 05:11:26;;;;;;;15.63;7.43;;;;;;;-143.21;56.96;71055.06;5110294;27;20222;-79
2023/07/22 05:13:53;;;;;;;17.60;8.35;;;;;;;-143.21;57.29;71053.06;5109072;27;20204;-79
2023/07/22 05:16:21;;;;;;;14.82;7.75;;;;;;;-143.21;56.80;71053.06;5111847;27;20196;-79
2023/07/22 05:18:48;;;;;;;15.63;7.93;;;;;;;-143.21;56.72;71039.19;5115771;27;20227;-80
2023/07/22 05:21:14;;;;;;;15.32;8.98;;;;;;;-143.21;56.41;71031.25;5113980;27;20203;-80
2023/07/22 05:23:42;;;;;;;20.45;8.13;;;;;;;-143.21;56.04;71025.31;5110788;27;20200;-81
2023/07/22 05:26:09;;;;;;;16.92;8.27;;;;;;;-143.21;56.35;71021.34;5113274;27;20224;-80
2023/07/22 05:28:36;;;;;;;18.90;8.70;;;;;;;-143.21;56.62;71009.44;5115457;27;20223;-78
2023/07/22 05:31:03;;;;;;;18.40;8.68;;;;;;;-143.21;56.30;71005.50;5112109;27;20212;-80
2023/07/22 05:33:30;;;;;;;16.15;9.18;;;;;;;-143.21;56.40;70997.56;5114002;27;20204;-80
2023/07/22 05:35:56;;;;;;;18.70;9.30;;;;;;;-143.21;55.88;70993.59;5114877;27;20207;-79
2023/07/22 05:38:23;;;;;;;18.98;9.23;;;;;;;-143.21;55.76;70985.66;5116844;27;20239;-79
2023/07/22 05:40:52;;;;;;;20.10;9.55;;;;;;;-143.21;55.64;70993.59;5116607;27;20204;-79
2023/07/22 05:43:19;;;;;;;19.20;9.25;;;;;;;-143.21;55.57;70985.66;5111832;27;20257;-78
2023/07/22 05:45:46;;;;;;;12.93;8.85;;;;;;;-143.21;56.06;70975.75;5107659;27;20228;-78
2023/07/22 05:48:13;;;;;;;21.27;10.05;;;;;;;-143.21;56.31;70965.84;5110529;27;20204;-79
2023/07/22 05:50:40;;;;;;;20.02;9.55;;;;;;;-143.21;55.56;70965.84;5113674;27;20228;-80
2023/07/22 05:53:08;;;;;;;19.13;9.55;;;;;;;-143.21;55.95;70953.94;5114355;27;20670;-80
2023/07/22 05:55:35;;;;;;;16.63;9.70;;;;;;;-143.21;56.16;70948.00;5112411;27;20697;-79
2023/07/22 05:58:05;;;;;;;18.38;10.15;;;;;;;-143.21;55.93;70946.03;5114171;27;20641;-79
2023/07/22 06:00:32;;;;;;;19.67;9.70;;;;;;;-143.21;55.32;70946.03;5109636;27;20273;-79
2023/07/22 06:02:59;;;;;;;14.88;9.63;;;;;;;-143.21;55.05;70948.00;5112577;27;20657;-79
2023/07/22 06:05:26;;;;;;;17.10;9.82;;;;;;;-143.21;55.47;70949.97;5111876;27;20658;-80
2023/07/22 06:07:54;;;;;;;18.05;9.60;;;;;;;-143.21;55.25;70944.03;5108654;27;20213;-80
2023/07/22 06:10:21;;;;;;;15.35;9.02;;;;;;;-143.21;55.31;70946.03;5109022;27;20207;-81
2023/07/22 06:12:48;;;;;;;17.00;10.02;;;;;;;-143.21;55.81;70951.97;5113241;27;20204;-81
2023/07/22 06:15:16;;;;;;;15.82;9.18;;;;;;;-143.21;55.75;70955.94;5110514;27;20207;-80
2023/07/22 06:17:43;;;;;;;21.83;9.50;;;;;;;-143.21;56.06;70963.84;5111360;27;20791;-80
2023/07/22 06:20:11;;;;;;;16.92;8.90;;;;;;;-143.21;56.36;70971.78;5113218;27;20212;-80
2023/07/22 06:22:38;;;;;;;16.40;8.98;;;;;;;-143.21;56.66;70967.81;5115831;27;20210;-81
2023/07/22 06:25:06;;;;;;;15.50;9.05;;;;;;;-143.21;56.75;70967.81;5112565;27;20207;-80
2023/07/22 06:27:32;;;;;;;22.77;9.27;;;;;;;-143.21;56.47;70965.84;5114125;27;20225;-80
2023/07/22 06:30:02;;;;;;;18.45;9.43;;;;;;;-143.21;56.61;70951.97;5108397;27;20207;-80
2023/07/22 06:32:30;;;;;;;16.98;9.40;;;;;;;-143.21;56.24;70955.94;5107342;27;20203;-79
2023/07/22 06:34:57;;;;;;;20.38;9.32;;;;;;;-143.21;55.48;70946.03;5108894;27;20694;-79
2023/07/22 06:37:24;;;;;;;13.98;9.13;;;;;;;-143.21;55.51;70926.19;5118049;27;20223;-78
2023/07/22 06:39:51;;;;;;;13.43;8.77;;;;;;;-143.21;55.21;70914.31;5116276;27;20735;-78
2023/07/22 06:42:18;;;;;;;17.25;8.45;;;;;;;-143.21;55.11;70906.38;5109966;27;20294;-81
2023/07/22 06:44:45;;;;;;;16.70;8.43;;;;;;;-143.21;55.36;70904.38;5109615;27;20208;-81
2023/07/22 06:47:11;;;;;;;13.77;8.52;;;;;;;-143.21;55.48;70906.38;5111393;27;20657;-81
2023/07/22 06:49:40;;;;;;;15.55;9.27;;;;;;;-143.21;55.53;70898.44;5113581;27;20263;-79
2023/07/22 06:52:11;;;;;;;15.27;9.02;;;;;;;-143.21;55.32;70896.47;5111502;27;20289;-80
2023/07/22 06:54:37;;;;;;;19.80;8.90;;;;;;;-143.21;54.62;70882.59;5109118;27;20188;-84
2023/07/22 06:57:05;;;;;;;15.18;7.97;;;;;;;-143.21;53.87;70874.66;5114627;27;20199;-80
2023/07/22 06:59:32;;;;;;;13.77;8.60;;;;;;;-143.21;54.56;70866.72;5110997;27;20212;-81
2023/07/22 07:01:59;;;;;;;15.50;8.65;;;;;;;-143.21;53.93;70868.72;5108977;27;20200;-81
2023/07/22 07:04:27;;;;;;;16.13;9.30;;;;;;;-143.21;54.02;70870.69;5105631;27;20841;-81
2023/07/22 07:06:55;;;;;;;14.40;8.25;;;;;;;-143.21;53.62;70864.75;5108012;27;20214;-81
2023/07/22 07:09:22;;;;;;;18.17;8.30;;;;;;;-143.21;53.47;70862.75;5107261;27;20196;-81
2023/07/22 07:11:49;;;;;;;14.20;8.98;;;;;;;-143.21;53.93;70848.88;5107504;28;20203;-80
2023/07/22 07:14:15;;;;;;;16.48;9.55;;;;;;;-143.21;53.24;70833.03;5108414;27;20281;-80
2023/07/22 07:16:42;;;;;;;13.68;9.15;;;;;;;-143.21;53.56;70825.09;5106654;27;20646;-81
2023/07/22 07:19:09;;;;;;;16.55;8.80;;;;;;;-143.21;51.91;70819.16;5108008;27;20210;-81
2023/07/22 07:21:36;;;;;;;16.45;9.88;;;;;;;-143.21;53.30;70813.19;5109510;27;20222;-80
2023/07/22 07:24:05;;;;;;;13.80;8.80;;;;;;;-143.21;52.05;70811.22;5108384;28;20278;-82
2023/07/22 07:26:31;;;;;;;11.30;8.73;;;;;;;-143.21;52.17;70813.19;5107272;27;20231;-83
2023/07/22 07:28:58;;;;;;;16.08;9.48;;;;;;;-143.21;51.56;70807.25;5109555;27;20245;-82
2023/07/22 07:31:25;;;;;;;22.38;10.75;;;;;;;-143.21;52.00;70793.38;5109859;27;20207;-82
2023/07/22 07:33:52;;;;;;;18.73;9.75;;;;;;;-143.21;51.04;70793.38;5109840;27;20396;-83
2023/07/22 07:36:19;;;;;;;17.45;10.00;;;;;;;-143.21;51.10;70783.47;5108094;27;20199;-82
2023/07/22 07:38:47;;;;;;;10.10;8.32;;;;;;;-143.21;48.83;70769.59;5110762;27;20236;-81
2023/07/22 07:41:15;;;;;;;28.05;9.82;;;;;;;-143.21;49.83;70771.56;5110463;27;20204;-80
2023/07/22 07:43:43;;;;;;;16.45;10.05;;;;;;;-143.21;50.48;70757.69;5108114;27;20208;-82
2023/07/22 07:46:14;;;;;;;20.58;10.02;;;;;;;-143.21;50.57;70733.91;5109537;27;20238;-81
2023/07/22 07:48:41;;;;;;;19.65;9.82;;;;;;;-143.21;51.10;70718.06;5108358;28;20204;-82
2023/07/22 07:51:08;;;;;;;20.13;9.82;;;;;;;-143.21;49.94;70694.25;5108593;27;20238;-82
2023/07/22 07:53:35;;;;;;;18.45;10.30;;;;;;;-143.21;49.80;70672.47;5107174;28;20200;-80
2023/07/22 07:56:01;;;;;;;21.02;10.57;;;;;;;-143.21;49.72;70664.53;5107827;28;20208;-82
2023/07/22 07:58:30;;;;;;;20.35;10.73;;;;;;;-143.21;50.03;70676.44;5107203;28;20291;-76
2023/07/22 08:00:56;;;;;;;22.88;9.98;;;;;;;-143.21;49.81;70670.47;5111035;28;20227;-82
2023/07/22 08:03:23;;;;;;;19.50;10.57;;;;;;;-143.21;49.06;70662.56;5107645;28;20227;-79
2023/07/22 08:05:50;;;;;;;14.57;9.90;;;;;;;-143.21;49.68;70638.75;5115170;28;20199;-81
2023/07/22 08:08:17;;;;;;;18.17;9.60;;;;;;;-143.21;48.44;70614.97;5111555;28;20313;-80
2023/07/22 08:10:44;;;;;;;17.33;10.00;;;;;;;-143.21;48.35;70595.16;5112468;28;20212;-80
2023/07/22 08:13:11;;;;;;;17.65;10.55;;;;;;;-143.21;48.18;70593.19;5110954;28;20215;-81
2023/07/22 08:15:39;;;;;;;21.60;10.40;;;;;;;-143.21;48.94;70591.19;5107951;28;20215;-82
2023/07/22 08:18:06;;;;;;;20.17;10.18;;;;;;;-143.21;48.39;70583.25;5108123;28;20238;-81
2023/07/22 08:20:33;;;;;;;22.90;10.98;;;;;;;-143.21;48.86;70583.25;5111369;28;20215;-86
2023/07/22 08:23:00;;;;;;;15.70;10.02;;;;;;;-143.21;48.92;70583.25;5111635;28;20207;-80
2023/07/22 08:25:27;;;;;;;24.88;10.52;;;;;;;-143.21;47.59;70573.34;5109551;28;20299;-81
2023/07/22 08:27:53;;;;;;;22.75;11.40;;;;;;;-143.21;48.57;70567.41;5108442;28;20260;-82
2023/07/22 08:30:21;;;;;;;19.73;10.25;;;;;;;-143.21;48.50;70551.56;5112819;28;20203;-81
2023/07/22 08:32:49;;;;;;;20.17;10.77;;;;;;;-143.21;47.58;70541.63;5114513;27;20265;-80
2023/07/22 08:35:17;;;;;;;16.75;10.52;;;;;;;-143.21;47.53;70547.59;5111908;27;20246;-83
2023/07/22 08:37:43;;;;;;;18.27;11.00;;;;;;;-143.21;48.14;70553.53;5114051;27;20204;-83
2023/07/22 08:40:12;;;;;;;24.42;10.77;;;;;;;-143.21;48.27;70565.44;5114737;27;20207;-82
2023/07/22 08:42:39;;;;;;;23.63;11.13;;;;;;;-143.21;47.96;70543.63;5110653;27;20200;-83
2023/07/22 08:45:11;;;;;;;21.15;11.45;;;;;;;-143.21;47.59;70531.72;5111385;27;20204;-84
2023/07/22 08:47:45;;;;;;;22.58;11.02;;;;;;;-143.21;47.26;70513.88;5110936;27;20294;-83
2023/07/22 08:50:17;;;;;;;23.90;11.63;;;;;;;-143.21;44.88;70515.88;5110920;27;20689;-83
2023/07/22 08:52:45;;;;;;;18.50;10.40;;;;;;;-143.21;47.35;70503.97;5111994;27;20207;-83
2023/07/22 08:55:12;;;;;;;21.50;10.43;;;;;;;-143.21;47.89;70476.22;5111463;27;20211;-84
2023/07/22 08:57:40;;;;;;;25.02;10.80;;;;;;;-143.21;47.04;70458.41;5109702;27;20200;-84
2023/07/22 09:00:09;;;;;;;19.25;10.38;;;;;;;-143.21;46.55;70438.56;5111700;27;20200;-84
2023/07/22 09:02:36;;;;;;;19.60;10.45;;;;;;;-143.21;44.51;70426.69;5115319;27;20249;-84
2023/07/22 09:05:03;;;;;;;20.75;10.95;;;;;;;-143.21;46.28;70398.94;5111263;27;20196;-84
2023/07/22 09:07:32;;;;;;;14.77;10.15;;;;;;;-143.21;45.61;70371.19;5110167;27;20220;-84
2023/07/22 09:10:00;;;;;;;17.15;10.50;;;;;;;-143.21;44.22;70359.28;5114063;27;20204;-84
2023/07/22 09:12:27;;;;;;;17.80;10.70;;;;;;;-143.21;45.19;70341.44;5112585;27;20207;-89
2023/07/22 09:14:54;;;;;;;20.42;10.18;;;;;;;-143.21;43.62;70323.63;5110871;28;20204;-84
2023/07/22 09:17:22;;;;;;;20.10;9.90;;;;;;;-143.21;43.96;70327.56;5107751;27;20192;-82
2023/07/22 09:19:53;;;;;;;18.95;10.68;;;;;;;-143.21;43.73;70299.84;5110839;27;20370;-82
2023/07/22 09:22:27;;;;;;;21.40;11.45;;;;;;;-143.21;43.32;70291.91;5110573;27;20196;-82
2023/07/22 09:25:14;;;;;;;20.92;11.10;;;;;;;-143.21;43.77;70264.16;5111063;27;20204;-81
2023/07/22 09:27:40;;;;;;;19.63;11.98;;;;;;;-143.21;43.26;70236.41;5113824;27;20314;-83
2023/07/22 09:30:21;;;;;;;23.67;10.43;;;;;;;-143.21;41.96;70232.44;5112526;27;20208;-82
2023/07/22 09:32:48;;;;;;;17.83;10.18;;;;;;;-143.21;41.44;70218.56;5110744;27;20592;-82
2023/07/22 09:35:15;;;;;;;18.05;9.63;;;;;;;-143.21;41.93;70206.69;5111057;27;20207;-87
2023/07/22 09:37:42;;;;;;;21.20;10.45;;;;;;;-143.21;42.10;70182.91;5109319;27;21551;-84
2023/07/22 09:40:19;;;;;;;19.17;9.57;;;;;;;-143.21;41.54;70161.09;5113971;27;20286;-84
2023/07/22 09:42:52;;;;;;;19.33;9.18;;;;;;;-143.21;41.25;70149.19;5109923;27;20204;-84
2023/07/22 09:45:19;;;;;;;26.60;9.38;;;;;;;-143.21;38.01;70163.06;5114189;27;20253;-85
2023/07/22 09:47:48;;;;;;;24.38;9.18;;;;;;;-143.21;39.21;70172.97;5110838;27;20239;-84
2023/07/22 09:50:17;;;;;;;24.08;9.18;;;;;;;-143.21;39.70;70165.06;5110012;27;20204;-85
2023/07/22 09:52:48;;;;;;;23.42;9.52;;;;;;;-143.21;39.70;70145.25;5108485;27;20207;-86
2023/07/22 09:55:20;;;;;;;19.88;9.40;;;;;;;-143.21;39.37;70099.66;5107812;27;20324;-83
2023/07/22 09:57:51;;;;;;;24.58;10.45;;;;;;;-143.21;39.15;70095.69;5111249;27;20223;-84
2023/07/22 10:00:20;;;;;;;23.42;9.68;;;;;;;-143.21;37.73;70091.72;5110576;27;20215;-84
2023/07/22 10:02:49;;;;;;;28.70;9.02;;;;;;;-143.21;39.00;70180.91;5109898;27;20223;-86
2023/07/22 10:05:17;;;;;;;21.77;8.95;;;;;;;-143.21;39.80;70143.25;5113901;27;20204;-84
2023/07/22 10:07:46;;;;;;;25.65;8.75;;;;;;;-143.21;37.39;70089.75;5113260;27;20239;-84
2023/07/22 10:10:16;;;;;;;26.67;8.63;;;;;;;-143.21;37.60;70046.16;5109951;27;20219;-84
2023/07/22 10:12:44;;;;;;;25.42;9.18;;;;;;;-143.21;37.30;70010.47;5109522;27;21132;-85
2023/07/22 10:15:13;;;;;;;23.50;7.90;;;;;;;-143.21;35.57;69974.81;5110010;27;20199;-83
2023/07/22 10:17:40;;;;;;;16.67;7.65;;;;;;;-143.21;34.96;69974.81;5113180;27;20208;-82
2023/07/22 10:20:10;;;;;;;30.90;9.07;;;;;;;-143.21;35.12;69964.91;5116964;27;20195;-83
2023/07/22 10:22:37;;;;;;;24.70;7.40;;;;;;;-143.21;35.11;69953.00;5110670;27;20248;-84
2023/07/22 10:25:08;;;;;;;26.35;7.70;;;;;;;-143.21;34.34;69960.94;5109879;27;20204;-80
2023/07/22 10:27:39;;;;;;;20.88;7.40;;;;;;;-143.21;34.99;69949.03;5110464;27;20300;-79
2023/07/22 10:30:09;;;;;;;27.35;7.25;;;;;;;-143.21;34.33;69939.13;5110110;27;20196;-79
2023/07/22 10:32:37;;;;;;;23.67;7.93;;;;;;;-143.21;34.58;69927.25;5113458;27;20586;-79
2023/07/22 10:35:05;;;;;;;19.27;6.90;;;;;;;-143.21;34.56;69909.41;5112722;27;20627;-79
2023/07/22 10:37:33;;;;;;;24.05;6.75;;;;;;;-143.21;33.72;69891.56;5107795;27;20207;-78
2023/07/22 10:40:02;;;;;;;24.17;6.55;;;;;;;-143.21;33.92;69887.59;5112918;27;20203;-79
2023/07/22 10:42:32;;;;;;;27.95;6.90;;;;;;;-143.21;33.67;69885.63;5110715;27;20247;-79
2023/07/22 10:45:02;;;;;;;22.65;6.80;;;;;;;-143.21;33.69;69883.63;5106502;28;20200;-79
2023/07/22 10:47:37;;;;;;;23.85;7.43;;;;;;;-143.21;32.47;69861.84;5113369;27;20232;-79
2023/07/22 10:50:10;;;;;;;24.20;7.28;;;;;;;-143.21;32.08;69844.00;5108165;27;20609;-79
2023/07/22 10:52:43;;;;;;;25.20;7.00;;;;;;;-143.21;32.03;69847.97;5108495;27;20200;-79
2023/07/22 10:55:17;;;;;;;31.63;7.65;;;;;;;-143.21;32.60;69834.09;5113246;27;20207;-79
2023/07/22 10:57:52;;;;;;;30.63;8.38;;;;;;;-143.21;32.94;69816.25;5112933;27;20199;-78
2023/07/22 11:00:21;;;;;;;26.92;7.05;;;;;;;-143.21;33.14;69790.50;5110849;27;20210;-79
2023/07/22 11:03:10;;;;;;;30.40;7.35;;;;;;;-143.21;31.40;69774.66;5110887;27;20200;-79
2023/07/22 11:05:50;;;;;;;30.55;7.05;;;;;;;-143.21;31.90;69802.38;5106544;27;20188;-78
2023/07/22 11:08:17;;;;;;;28.45;7.18;;;;;;;-143.21;31.78;69798.44;5118897;27;20344;-79
2023/07/22 11:10:55;;;;;;;24.92;7.13;;;;;;;-143.21;31.62;69774.66;5113116;27;20203;-79